Jacksonville, Missouri
Current Conditions -  °F | °C
As of 2:55 PM on Friday 19 Dec 2014 (Local Time) from KIRK Reporting Station
Haze Haze  
Wind Chill: 26°   Ceiling: 4900
Heat Index: 32°   Visibility: 5mi
Dew Point: 30°   Wind: 6mph
Humidity: 92%   Direction: 120°ESE
Pressure: 30.24"   Gusts: NA
Location:  39.59°N, 92.47°W
Report Text: KIRK 192055Z AUTO 12005KT 5SM BR SCT026 OVC049 00/M01 A3024 RMK AO2 SLP256 T00001011 58007
Loading
Personal Weather Stations






























Interactive Weather Map New forecast layout! Learn more

10-Day Weather Forecast

Advertisements
Track Severe Weather on mobile